sensor_id;sensor_type;location;lat;lon;timestamp;temperature;humidity
30069;DHT22;16894;49.456;10.644;2024-02-14T00:01:16;0.80;1.00
30069;DHT22;16894;49.456;10.644;2024-02-14T00:04:03;0.80;1.00
30069;DHT22;16894;49.456;10.644;2024-02-14T00:06:47;0.70;1.00
30069;DHT22;16894;49.456;10.644;2024-02-14T00:09:31;0.70;1.00
30069;DHT22;16894;49.456;10.644;2024-02-14T00:12:16;0.70;1.00
30069;DHT22;16894;49.456;10.644;2024-02-14T00:15:00;0.80;1.00
30069;DHT22;16894;49.456;10.644;2024-02-14T00:17:45;0.80;1.00
30069;DHT22;16894;49.456;10.644;2024-02-14T00:20:29;0.90;1.00
30069;DHT22;16894;49.456;10.644;2024-02-14T00:23:14;0.80;1.00
30069;DHT22;16894;49.456;10.644;2024-02-14T00:25:58;0.80;1.00
30069;DHT22;16894;49.456;10.644;2024-02-14T00:28:42;0.80;1.00
30069;DHT22;16894;49.456;10.644;2024-02-14T00:31:27;0.80;1.00
30069;DHT22;16894;49.456;10.644;2024-02-14T00:34:11;0.60;1.00
30069;DHT22;16894;49.456;10.644;2024-02-14T00:36:56;0.70;1.90
30069;DHT22;16894;49.456;10.644;2024-02-14T00:39:40;0.70;1.00
30069;DHT22;16894;49.456;10.644;2024-02-14T00:42:26;0.70;1.00
30069;DHT22;16894;49.456;10.644;2024-02-14T00:45:11;0.70;1.00
30069;DHT22;16894;49.456;10.644;2024-02-14T00:47:56;0.70;1.00
30069;DHT22;16894;49.456;10.644;2024-02-14T00:50:40;0.60;1.00
30069;DHT22;16894;49.456;10.644;2024-02-14T00:53:24;0.60;1.00
30069;DHT22;16894;49.456;10.644;2024-02-14T00:56:08;0.60;1.00
30069;DHT22;16894;49.456;10.644;2024-02-14T00:58:53;0.50;1.00
30069;DHT22;16894;49.456;10.644;2024-02-14T01:01:38;0.60;6.00
30069;DHT22;16894;49.456;10.644;2024-02-14T01:04:22;0.70;16.60
30069;DHT22;16894;49.456;10.644;2024-02-14T01:07:06;0.70;1.00
30069;DHT22;16894;49.456;10.644;2024-02-14T01:09:50;0.60;1.00
30069;DHT22;16894;49.456;10.644;2024-02-14T01:12:35;0.50;1.00
30069;DHT22;16894;49.456;10.644;2024-02-14T01:15:19;0.50;1.00
30069;DHT22;16894;49.456;10.644;2024-02-14T01:18:06;0.60;1.00
30069;DHT22;16894;49.456;10.644;2024-02-14T01:20:50;0.50;1.00
30069;DHT22;16894;49.456;10.644;2024-02-14T01:23:34;0.60;5.50
30069;DHT22;16894;49.456;10.644;2024-02-14T01:26:19;0.70;6.30
30069;DHT22;16894;49.456;10.644;2024-02-14T01:29:05;0.60;1.00
30069;DHT22;16894;49.456;10.644;2024-02-14T01:31:49;0.60;3.60
30069;DHT22;16894;49.456;10.644;2024-02-14T01:34:34;0.60;1.00
30069;DHT22;16894;49.456;10.644;2024-02-14T01:37:18;0.50;1.00
30069;DHT22;16894;49.456;10.644;2024-02-14T01:40:05;0.50;1.00
30069;DHT22;16894;49.456;10.644;2024-02-14T01:42:51;0.40;1.00
30069;DHT22;16894;49.456;10.644;2024-02-14T01:45:37;0.30;1.00
30069;DHT22;16894;49.456;10.644;2024-02-14T01:48:21;0.30;15.20
30069;DHT22;16894;49.456;10.644;2024-02-14T01:51:06;0.30;20.00
30069;DHT22;16894;49.456;10.644;2024-02-14T01:53:52;0.30;17.40
30069;DHT22;16894;49.456;10.644;2024-02-14T01:56:37;0.20;22.80
30069;DHT22;16894;49.456;10.644;2024-02-14T01:59:23;0.30;20.90
30069;DHT22;16894;49.456;10.644;2024-02-14T02:02:07;0.30;21.10
30069;DHT22;16894;49.456;10.644;2024-02-14T02:04:52;0.30;19.20
30069;DHT22;16894;49.456;10.644;2024-02-14T02:07:36;0.40;23.60
30069;DHT22;16894;49.456;10.644;2024-02-14T02:10:23;0.40;23.50
30069;DHT22;16894;49.456;10.644;2024-02-14T02:13:09;0.50;17.60
30069;DHT22;16894;49.456;10.644;2024-02-14T02:15:54;0.50;16.50
30069;DHT22;16894;49.456;10.644;2024-02-14T02:18:38;0.60;21.30
30069;DHT22;16894;49.456;10.644;2024-02-14T02:21:22;0.60;17.40
30069;DHT22;16894;49.456;10.644;2024-02-14T02:24:07;0.60;15.10
30069;DHT22;16894;49.456;10.644;2024-02-14T02:26:52;0.70;10.00
30069;DHT22;16894;49.456;10.644;2024-02-14T02:29:36;0.70;3.40
30069;DHT22;16894;49.456;10.644;2024-02-14T02:32:21;0.80;2.20
30069;DHT22;16894;49.456;10.644;2024-02-14T02:35:06;0.90;1.00
30069;DHT22;16894;49.456;10.644;2024-02-14T02:37:50;0.90;1.00
30069;DHT22;16894;49.456;10.644;2024-02-14T02:40:34;0.90;1.00
30069;DHT22;16894;49.456;10.644;2024-02-14T02:43:18;0.90;1.00
30069;DHT22;16894;49.456;10.644;2024-02-14T02:46:03;0.90;1.00
30069;DHT22;16894;49.456;10.644;2024-02-14T02:48:47;0.90;1.00
30069;DHT22;16894;49.456;10.644;2024-02-14T02:51:32;0.80;1.00
30069;DHT22;16894;49.456;10.644;2024-02-14T02:54:16;0.90;1.00
30069;DHT22;16894;49.456;10.644;2024-02-14T02:57:01;0.90;1.00
30069;DHT22;16894;49.456;10.644;2024-02-14T02:59:47;0.90;1.00
30069;DHT22;16894;49.456;10.644;2024-02-14T03:02:32;0.80;1.00
30069;DHT22;16894;49.456;10.644;2024-02-14T03:05:18;0.80;1.00
30069;DHT22;16894;49.456;10.644;2024-02-14T03:08:02;0.90;1.00
30069;DHT22;16894;49.456;10.644;2024-02-14T03:10:46;0.80;1.00
30069;DHT22;16894;49.456;10.644;2024-02-14T03:13:30;0.80;1.00
30069;DHT22;16894;49.456;10.644;2024-02-14T03:16:15;0.80;1.00
30069;DHT22;16894;49.456;10.644;2024-02-14T03:19:01;0.80;11.70
30069;DHT22;16894;49.456;10.644;2024-02-14T03:21:47;0.80;7.60
30069;DHT22;16894;49.456;10.644;2024-02-14T03:24:32;0.90;13.20
30069;DHT22;16894;49.456;10.644;2024-02-14T03:27:19;0.90;20.60
30069;DHT22;16894;49.456;10.644;2024-02-14T03:30:03;1.00;13.40
30069;DHT22;16894;49.456;10.644;2024-02-14T03:32:48;1.00;21.60
30069;DHT22;16894;49.456;10.644;2024-02-14T03:35:32;1.00;6.00
30069;DHT22;16894;49.456;10.644;2024-02-14T03:38:24;0.90;1.00
30069;DHT22;16894;49.456;10.644;2024-02-14T03:41:08;0.90;1.70
30069;DHT22;16894;49.456;10.644;2024-02-14T03:43:52;1.00;1.00
30069;DHT22;16894;49.456;10.644;2024-02-14T03:46:38;1.10;2.10
30069;DHT22;16894;49.456;10.644;2024-02-14T03:49:22;1.10;1.00
30069;DHT22;16894;49.456;10.644;2024-02-14T03:52:07;1.40;18.30
30069;DHT22;16894;49.456;10.644;2024-02-14T03:54:53;1.10;99.90
30069;DHT22;16894;49.456;10.644;2024-02-14T03:57:38;1.10;1.00
30069;DHT22;16894;49.456;10.644;2024-02-14T04:00:23;1.10;1.00
30069;DHT22;16894;49.456;10.644;2024-02-14T04:03:07;1.20;1.00
30069;DHT22;16894;49.456;10.644;2024-02-14T04:05:51;1.20;1.00
30069;DHT22;16894;49.456;10.644;2024-02-14T04:08:35;1.20;1.00
30069;DHT22;16894;49.456;10.644;2024-02-14T04:11:20;1.60;7.00
30069;DHT22;16894;49.456;10.644;2024-02-14T04:14:04;1.80;1.00
30069;DHT22;16894;49.456;10.644;2024-02-14T04:16:48;2.00;6.30
30069;DHT22;16894;49.456;10.644;2024-02-14T04:19:33;2.20;6.10
30069;DHT22;16894;49.456;10.644;2024-02-14T04:22:17;2.30;1.00
30069;DHT22;16894;49.456;10.644;2024-02-14T04:25:01;2.50;1.00
30069;DHT22;16894;49.456;10.644;2024-02-14T04:27:45;2.50;1.00
30069;DHT22;16894;49.456;10.644;2024-02-14T04:30:30;2.70;1.00
30069;DHT22;16894;49.456;10.644;2024-02-14T04:33:14;2.80;1.00
30069;DHT22;16894;49.456;10.644;2024-02-14T04:35:58;2.90;1.00
30069;DHT22;16894;49.456;10.644;2024-02-14T04:38:43;3.00;1.00
30069;DHT22;16894;49.456;10.644;2024-02-14T04:41:28;3.10;1.00
30069;DHT22;16894;49.456;10.644;2024-02-14T04:44:12;3.10;1.00
30069;DHT22;16894;49.456;10.644;2024-02-14T04:46:57;3.20;1.00
30069;DHT22;16894;49.456;10.644;2024-02-14T04:49:42;3.20;1.00
30069;DHT22;16894;49.456;10.644;2024-02-14T04:52:27;3.30;1.00
30069;DHT22;16894;49.456;10.644;2024-02-14T04:55:11;3.40;99.90
30069;DHT22;16894;49.456;10.644;2024-02-14T04:57:55;3.50;99.90
30069;DHT22;16894;49.456;10.644;2024-02-14T05:00:40;3.60;99.90
30069;DHT22;16894;49.456;10.644;2024-02-14T05:03:24;3.50;99.90
30069;DHT22;16894;49.456;10.644;2024-02-14T05:06:08;3.50;99.90
30069;DHT22;16894;49.456;10.644;2024-02-14T05:08:52;3.50;99.90
30069;DHT22;16894;49.456;10.644;2024-02-14T05:11:37;3.70;99.90
30069;DHT22;16894;49.456;10.644;2024-02-14T05:14:21;3.80;99.90
30069;DHT22;16894;49.456;10.644;2024-02-14T05:17:06;3.80;99.90
30069;DHT22;16894;49.456;10.644;2024-02-14T05:19:50;3.70;99.90
30069;DHT22;16894;49.456;10.644;2024-02-14T05:22:35;3.70;99.90
30069;DHT22;16894;49.456;10.644;2024-02-14T05:25:20;3.80;99.90
30069;DHT22;16894;49.456;10.644;2024-02-14T05:28:05;3.90;99.90
30069;DHT22;16894;49.456;10.644;2024-02-14T05:30:49;3.90;99.90
30069;DHT22;16894;49.456;10.644;2024-02-14T05:33:33;4.00;99.90
30069;DHT22;16894;49.456;10.644;2024-02-14T05:36:17;3.90;99.90
30069;DHT22;16894;49.456;10.644;2024-02-14T05:39:02;3.90;99.90
30069;DHT22;16894;49.456;10.644;2024-02-14T05:41:46;3.90;99.90
30069;DHT22;16894;49.456;10.644;2024-02-14T05:44:30;3.80;99.90
30069;DHT22;16894;49.456;10.644;2024-02-14T05:47:14;3.80;99.90
30069;DHT22;16894;49.456;10.644;2024-02-14T05:49:58;3.90;99.90
30069;DHT22;16894;49.456;10.644;2024-02-14T05:52:43;3.80;99.90
30069;DHT22;16894;49.456;10.644;2024-02-14T05:55:27;3.80;99.90
30069;DHT22;16894;49.456;10.644;2024-02-14T05:58:11;3.80;99.90
30069;DHT22;16894;49.456;10.644;2024-02-14T06:00:56;3.80;99.90
30069;DHT22;16894;49.456;10.644;2024-02-14T06:03:43;3.80;99.90
30069;DHT22;16894;49.456;10.644;2024-02-14T06:06:27;3.80;99.90
30069;DHT22;16894;49.456;10.644;2024-02-14T06:09:12;3.90;99.90
30069;DHT22;16894;49.456;10.644;2024-02-14T06:11:56;3.90;99.90
30069;DHT22;16894;49.456;10.644;2024-02-14T06:14:40;3.90;99.90
30069;DHT22;16894;49.456;10.644;2024-02-14T06:17:24;4.00;99.90
30069;DHT22;16894;49.456;10.644;2024-02-14T06:20:10;4.10;99.90
30069;DHT22;16894;49.456;10.644;2024-02-14T06:22:55;4.10;99.90
30069;DHT22;16894;49.456;10.644;2024-02-14T06:25:39;4.20;99.90
30069;DHT22;16894;49.456;10.644;2024-02-14T06:28:24;4.30;99.90
30069;DHT22;16894;49.456;10.644;2024-02-14T06:31:08;4.30;99.90
30069;DHT22;16894;49.456;10.644;2024-02-14T06:33:53;4.20;99.90
30069;DHT22;16894;49.456;10.644;2024-02-14T06:36:37;4.30;99.90
30069;DHT22;16894;49.456;10.644;2024-02-14T06:39:22;4.30;99.90
30069;DHT22;16894;49.456;10.644;2024-02-14T06:42:06;4.30;99.90
30069;DHT22;16894;49.456;10.644;2024-02-14T06:44:50;4.40;99.90
30069;DHT22;16894;49.456;10.644;2024-02-14T06:47:34;4.50;99.90
30069;DHT22;16894;49.456;10.644;2024-02-14T06:50:19;4.40;99.90
30069;DHT22;16894;49.456;10.644;2024-02-14T06:53:03;4.40;99.90
30069;DHT22;16894;49.456;10.644;2024-02-14T06:55:47;4.40;99.90
30069;DHT22;16894;49.456;10.644;2024-02-14T06:58:31;4.40;99.90
30069;DHT22;16894;49.456;10.644;2024-02-14T07:01:15;4.50;99.90
30069;DHT22;16894;49.456;10.644;2024-02-14T07:04:02;4.50;99.90
30069;DHT22;16894;49.456;10.644;2024-02-14T07:06:47;4.60;99.90
30069;DHT22;16894;49.456;10.644;2024-02-14T07:09:31;4.70;99.90
30069;DHT22;16894;49.456;10.644;2024-02-14T07:12:19;4.80;99.90
30069;DHT22;16894;49.456;10.644;2024-02-14T07:15:04;4.80;99.90
30069;DHT22;16894;49.456;10.644;2024-02-14T07:17:48;4.90;99.90
30069;DHT22;16894;49.456;10.644;2024-02-14T07:20:32;5.00;99.90
30069;DHT22;16894;49.456;10.644;2024-02-14T07:23:18;4.90;99.90
30069;DHT22;16894;49.456;10.644;2024-02-14T07:26:02;4.90;99.90
30069;DHT22;16894;49.456;10.644;2024-02-14T07:28:46;5.10;99.90
30069;DHT22;16894;49.456;10.644;2024-02-14T07:31:31;5.20;99.90
30069;DHT22;16894;49.456;10.644;2024-02-14T07:34:17;5.30;99.90
30069;DHT22;16894;49.456;10.644;2024-02-14T07:37:01;5.30;99.90
30069;DHT22;16894;49.456;10.644;2024-02-14T07:39:46;5.30;54.80
30069;DHT22;16894;49.456;10.644;2024-02-14T07:42:32;5.50;41.20
30069;DHT22;16894;49.456;10.644;2024-02-14T07:45:15;5.60;29.70
30069;DHT22;16894;49.456;10.644;2024-02-14T07:48:00;5.70;39.40
30069;DHT22;16894;49.456;10.644;2024-02-14T07:50:45;5.80;99.90
30069;DHT22;16894;49.456;10.644;2024-02-14T07:53:30;6.00;99.90
30069;DHT22;16894;49.456;10.644;2024-02-14T07:56:14;6.10;99.90
30069;DHT22;16894;49.456;10.644;2024-02-14T07:58:58;6.10;99.90
30069;DHT22;16894;49.456;10.644;2024-02-14T08:01:43;6.10;99.90
30069;DHT22;16894;49.456;10.644;2024-02-14T08:04:27;6.20;99.90
30069;DHT22;16894;49.456;10.644;2024-02-14T08:07:12;6.20;99.90
30069;DHT22;16894;49.456;10.644;2024-02-14T08:09:56;6.20;99.90
30069;DHT22;16894;49.456;10.644;2024-02-14T08:12:40;6.30;99.90
30069;DHT22;16894;49.456;10.644;2024-02-14T08:15:24;6.30;1.00
30069;DHT22;16894;49.456;10.644;2024-02-14T08:18:09;6.30;1.00
30069;DHT22;16894;49.456;10.644;2024-02-14T08:20:53;6.40;99.90
30069;DHT22;16894;49.456;10.644;2024-02-14T08:23:37;6.50;99.90
30069;DHT22;16894;49.456;10.644;2024-02-14T08:26:23;6.40;1.00
30069;DHT22;16894;49.456;10.644;2024-02-14T08:29:08;6.50;63.30
30069;DHT22;16894;49.456;10.644;2024-02-14T08:31:53;6.50;99.90
30069;DHT22;16894;49.456;10.644;2024-02-14T08:34:38;6.50;38.10
30069;DHT22;16894;49.456;10.644;2024-02-14T08:37:22;6.60;85.90
30069;DHT22;16894;49.456;10.644;2024-02-14T08:40:08;6.70;99.90
30069;DHT22;16894;49.456;10.644;2024-02-14T08:42:53;6.80;1.00
30069;DHT22;16894;49.456;10.644;2024-02-14T08:45:38;6.90;99.90
30069;DHT22;16894;49.456;10.644;2024-02-14T08:48:23;7.10;1.00
30069;DHT22;16894;49.456;10.644;2024-02-14T08:51:07;7.10;99.90
30069;DHT22;16894;49.456;10.644;2024-02-14T08:53:52;7.10;99.90
30069;DHT22;16894;49.456;10.644;2024-02-14T08:56:39;7.20;99.90
30069;DHT22;16894;49.456;10.644;2024-02-14T08:59:23;7.30;1.00
30069;DHT22;16894;49.456;10.644;2024-02-14T09:02:07;7.50;1.00
30069;DHT22;16894;49.456;10.644;2024-02-14T09:04:52;7.70;99.90
30069;DHT22;16894;49.456;10.644;2024-02-14T09:07:36;7.80;99.90
30069;DHT22;16894;49.456;10.644;2024-02-14T09:10:20;7.90;99.90
30069;DHT22;16894;49.456;10.644;2024-02-14T09:13:05;8.10;58.40
30069;DHT22;16894;49.456;10.644;2024-02-14T09:15:51;8.30;48.90
30069;DHT22;16894;49.456;10.644;2024-02-14T09:18:36;8.40;99.90
30069;DHT22;16894;49.456;10.644;2024-02-14T09:21:21;8.70;1.00
30069;DHT22;16894;49.456;10.644;2024-02-14T09:24:05;8.80;99.90
30069;DHT22;16894;49.456;10.644;2024-02-14T09:26:50;8.90;99.90
30069;DHT22;16894;49.456;10.644;2024-02-14T09:29:34;9.00;99.90
30069;DHT22;16894;49.456;10.644;2024-02-14T09:32:20;9.10;99.90
30069;DHT22;16894;49.456;10.644;2024-02-14T09:35:05;9.10;99.90
30069;DHT22;16894;49.456;10.644;2024-02-14T09:37:50;9.30;98.90
30069;DHT22;16894;49.456;10.644;2024-02-14T09:40:35;9.40;87.10
30069;DHT22;16894;49.456;10.644;2024-02-14T09:46:06;9.40;1.00
30069;DHT22;16894;49.456;10.644;2024-02-14T09:48:51;9.30;99.90
30069;DHT22;16894;49.456;10.644;2024-02-14T09:51:36;9.40;99.90
30069;DHT22;16894;49.456;10.644;2024-02-14T09:54:21;9.40;99.90
30069;DHT22;16894;49.456;10.644;2024-02-14T09:57:06;9.50;3.60
30069;DHT22;16894;49.456;10.644;2024-02-14T09:59:50;9.60;99.90
30069;DHT22;16894;49.456;10.644;2024-02-14T10:02:36;9.60;97.20
30069;DHT22;16894;49.456;10.644;2024-02-14T10:05:20;9.50;99.90
30069;DHT22;16894;49.456;10.644;2024-02-14T10:08:04;9.60;99.90
30069;DHT22;16894;49.456;10.644;2024-02-14T10:10:49;9.50;99.90
30069;DHT22;16894;49.456;10.644;2024-02-14T10:13:33;9.60;1.00
30069;DHT22;16894;49.456;10.644;2024-02-14T10:16:18;9.70;1.00
30069;DHT22;16894;49.456;10.644;2024-02-14T10:19:02;9.90;99.90
30069;DHT22;16894;49.456;10.644;2024-02-14T10:21:57;10.10;99.90
30069;DHT22;16894;49.456;10.644;2024-02-14T10:24:42;9.90;99.90
30069;DHT22;16894;49.456;10.644;2024-02-14T10:27:27;9.90;99.90
30069;DHT22;16894;49.456;10.644;2024-02-14T10:30:11;9.90;99.90
30069;DHT22;16894;49.456;10.644;2024-02-14T10:32:57;9.90;1.00
30069;DHT22;16894;49.456;10.644;2024-02-14T10:35:42;10.00;1.00
30069;DHT22;16894;49.456;10.644;2024-02-14T10:38:26;9.90;1.00
30069;DHT22;16894;49.456;10.644;2024-02-14T10:41:12;10.00;24.70
30069;DHT22;16894;49.456;10.644;2024-02-14T10:43:56;10.20;83.10
30069;DHT22;16894;49.456;10.644;2024-02-14T10:46:41;10.30;1.00
30069;DHT22;16894;49.456;10.644;2024-02-14T10:49:28;10.20;1.00
30069;DHT22;16894;49.456;10.644;2024-02-14T10:52:13;10.10;99.90
30069;DHT22;16894;49.456;10.644;2024-02-14T10:54:59;10.00;99.90
30069;DHT22;16894;49.456;10.644;2024-02-14T10:57:44;9.80;1.00
30069;DHT22;16894;49.456;10.644;2024-02-14T11:00:30;9.90;1.00
30069;DHT22;16894;49.456;10.644;2024-02-14T11:03:14;9.90;99.90
30069;DHT22;16894;49.456;10.644;2024-02-14T11:06:01;9.80;99.90
30069;DHT22;16894;49.456;10.644;2024-02-14T11:08:57;9.70;99.90
30069;DHT22;16894;49.456;10.644;2024-02-14T11:11:44;9.80;99.90
30069;DHT22;16894;49.456;10.644;2024-02-14T11:14:32;9.80;99.90
30069;DHT22;16894;49.456;10.644;2024-02-14T11:17:20;9.90;99.90
30069;DHT22;16894;49.456;10.644;2024-02-14T11:20:17;10.00;99.90
30069;DHT22;16894;49.456;10.644;2024-02-14T11:23:06;10.00;98.30
30069;DHT22;16894;49.456;10.644;2024-02-14T11:25:50;10.10;99.90
30069;DHT22;16894;49.456;10.644;2024-02-14T11:28:36;10.20;8.10
30069;DHT22;16894;49.456;10.644;2024-02-14T11:31:21;10.30;99.90
30069;DHT22;16894;49.456;10.644;2024-02-14T11:34:05;10.40;99.90
30069;DHT22;16894;49.456;10.644;2024-02-14T11:36:49;10.50;1.00
30069;DHT22;16894;49.456;10.644;2024-02-14T11:39:35;10.50;1.00
30069;DHT22;16894;49.456;10.644;2024-02-14T11:42:21;10.50;33.30
30069;DHT22;16894;49.456;10.644;2024-02-14T11:45:05;10.40;56.00
30069;DHT22;16894;49.456;10.644;2024-02-14T11:47:49;10.50;41.60
30069;DHT22;16894;49.456;10.644;2024-02-14T11:50:34;10.50;99.90
30069;DHT22;16894;49.456;10.644;2024-02-14T11:53:18;10.60;99.90
30069;DHT22;16894;49.456;10.644;2024-02-14T11:56:04;10.40;99.90
30069;DHT22;16894;49.456;10.644;2024-02-14T11:58:49;10.40;99.90
30069;DHT22;16894;49.456;10.644;2024-02-14T12:01:34;10.40;99.90
30069;DHT22;16894;49.456;10.644;2024-02-14T12:04:19;10.40;42.00
30069;DHT22;16894;49.456;10.644;2024-02-14T12:07:03;10.50;1.00
30069;DHT22;16894;49.456;10.644;2024-02-14T12:09:47;10.50;1.00
30069;DHT22;16894;49.456;10.644;2024-02-14T12:12:32;10.50;99.90
30069;DHT22;16894;49.456;10.644;2024-02-14T12:15:18;10.50;99.90
30069;DHT22;16894;49.456;10.644;2024-02-14T12:18:03;10.50;99.90
30069;DHT22;16894;49.456;10.644;2024-02-14T12:20:47;10.60;1.00
30069;DHT22;16894;49.456;10.644;2024-02-14T12:23:33;10.60;81.50
30069;DHT22;16894;49.456;10.644;2024-02-14T12:26:17;10.70;23.90
30069;DHT22;16894;49.456;10.644;2024-02-14T12:29:04;10.70;1.00
30069;DHT22;16894;49.456;10.644;2024-02-14T12:31:49;10.60;1.00
30069;DHT22;16894;49.456;10.644;2024-02-14T12:34:33;10.50;1.00
30069;DHT22;16894;49.456;10.644;2024-02-14T12:37:17;10.50;62.60
30069;DHT22;16894;49.456;10.644;2024-02-14T12:40:01;10.40;24.80
30069;DHT22;16894;49.456;10.644;2024-02-14T12:42:46;10.50;38.30
30069;DHT22;16894;49.456;10.644;2024-02-14T12:45:30;10.50;1.00
30069;DHT22;16894;49.456;10.644;2024-02-14T12:48:21;10.60;1.00
30069;DHT22;16894;49.456;10.644;2024-02-14T12:51:06;10.60;1.00
30069;DHT22;16894;49.456;10.644;2024-02-14T12:53:51;10.60;1.00
30069;DHT22;16894;49.456;10.644;2024-02-14T12:56:35;10.60;99.90
30069;DHT22;16894;49.456;10.644;2024-02-14T12:59:20;10.60;99.90
30069;DHT22;16894;49.456;10.644;2024-02-14T13:02:04;10.60;99.90
30069;DHT22;16894;49.456;10.644;2024-02-14T13:04:50;10.50;99.90
30069;DHT22;16894;49.456;10.644;2024-02-14T13:07:34;10.60;1.00
30069;DHT22;16894;49.456;10.644;2024-02-14T13:10:19;10.60;1.00
30069;DHT22;16894;49.456;10.644;2024-02-14T13:13:03;10.50;99.90
30069;DHT22;16894;49.456;10.644;2024-02-14T13:15:48;10.50;99.90
30069;DHT22;16894;49.456;10.644;2024-02-14T13:18:32;10.50;99.50
30069;DHT22;16894;49.456;10.644;2024-02-14T13:21:17;10.50;46.60
30069;DHT22;16894;49.456;10.644;2024-02-14T13:24:01;10.60;71.30
30069;DHT22;16894;49.456;10.644;2024-02-14T13:26:46;10.50;99.90
30069;DHT22;16894;49.456;10.644;2024-02-14T13:29:30;10.50;99.90
30069;DHT22;16894;49.456;10.644;2024-02-14T13:32:14;10.50;7.80
30069;DHT22;16894;49.456;10.644;2024-02-14T13:34:58;10.40;99.90
30069;DHT22;16894;49.456;10.644;2024-02-14T13:37:43;10.20;1.00
30069;DHT22;16894;49.456;10.644;2024-02-14T13:40:28;10.20;1.00
30069;DHT22;16894;49.456;10.644;2024-02-14T13:43:13;10.30;1.00
30069;DHT22;16894;49.456;10.644;2024-02-14T13:45:57;10.40;99.90
30069;DHT22;16894;49.456;10.644;2024-02-14T13:48:41;10.30;1.00
30069;DHT22;16894;49.456;10.644;2024-02-14T13:51:26;10.30;68.00
30069;DHT22;16894;49.456;10.644;2024-02-14T13:54:11;10.40;78.80
30069;DHT22;16894;49.456;10.644;2024-02-14T13:56:56;10.30;99.90
30069;DHT22;16894;49.456;10.644;2024-02-14T13:59:40;10.20;99.90
30069;DHT22;16894;49.456;10.644;2024-02-14T14:02:24;10.20;99.90
30069;DHT22;16894;49.456;10.644;2024-02-14T14:05:08;10.10;99.90
30069;DHT22;16894;49.456;10.644;2024-02-14T14:07:53;10.00;99.90
30069;DHT22;16894;49.456;10.644;2024-02-14T14:10:37;10.00;99.90
30069;DHT22;16894;49.456;10.644;2024-02-14T14:13:21;10.00;99.90
30069;DHT22;16894;49.456;10.644;2024-02-14T14:16:06;10.00;99.90
30069;DHT22;16894;49.456;10.644;2024-02-14T14:18:50;9.90;99.90
30069;DHT22;16894;49.456;10.644;2024-02-14T14:21:34;10.00;99.90
30069;DHT22;16894;49.456;10.644;2024-02-14T14:24:19;10.10;99.90
30069;DHT22;16894;49.456;10.644;2024-02-14T14:27:03;10.20;99.90
30069;DHT22;16894;49.456;10.644;2024-02-14T14:29:47;10.30;96.90
30069;DHT22;16894;49.456;10.644;2024-02-14T14:32:32;10.30;96.70
30069;DHT22;16894;49.456;10.644;2024-02-14T14:35:16;10.30;1.00
30069;DHT22;16894;49.456;10.644;2024-02-14T14:38:00;10.30;1.00
30069;DHT22;16894;49.456;10.644;2024-02-14T14:40:44;10.30;1.00
30069;DHT22;16894;49.456;10.644;2024-02-14T14:43:32;10.30;57.30
30069;DHT22;16894;49.456;10.644;2024-02-14T14:46:16;10.40;47.10
30069;DHT22;16894;49.456;10.644;2024-02-14T14:49:00;10.40;1.00
30069;DHT22;16894;49.456;10.644;2024-02-14T14:51:45;10.50;99.90
30069;DHT22;16894;49.456;10.644;2024-02-14T14:54:29;10.40;1.00
30069;DHT22;16894;49.456;10.644;2024-02-14T14:57:13;10.50;99.90
30069;DHT22;16894;49.456;10.644;2024-02-14T14:59:59;10.50;99.90
30069;DHT22;16894;49.456;10.644;2024-02-14T15:02:43;10.50;1.00
30069;DHT22;16894;49.456;10.644;2024-02-14T15:05:28;10.40;99.90
30069;DHT22;16894;49.456;10.644;2024-02-14T15:08:12;10.40;1.00
30069;DHT22;16894;49.456;10.644;2024-02-14T15:10:56;10.50;99.90
30069;DHT22;16894;49.456;10.644;2024-02-14T15:13:42;10.50;99.90
30069;DHT22;16894;49.456;10.644;2024-02-14T15:16:26;10.50;99.90
30069;DHT22;16894;49.456;10.644;2024-02-14T15:19:12;10.60;99.90
30069;DHT22;16894;49.456;10.644;2024-02-14T15:21:56;10.50;99.90
30069;DHT22;16894;49.456;10.644;2024-02-14T15:24:42;10.40;1.00
30069;DHT22;16894;49.456;10.644;2024-02-14T15:27:29;10.40;1.00
30069;DHT22;16894;49.456;10.644;2024-02-14T15:30:14;10.30;18.80
30069;DHT22;16894;49.456;10.644;2024-02-14T15:33:17;10.30;22.70
30069;DHT22;16894;49.456;10.644;2024-02-14T15:36:09;10.20;79.10
30069;DHT22;16894;49.456;10.644;2024-02-14T15:38:53;10.20;86.30
30069;DHT22;16894;49.456;10.644;2024-02-14T15:41:37;10.20;84.30
30069;DHT22;16894;49.456;10.644;2024-02-14T15:44:21;10.10;75.00
30069;DHT22;16894;49.456;10.644;2024-02-14T15:47:06;10.10;95.60
30069;DHT22;16894;49.456;10.644;2024-02-14T15:49:51;10.00;99.90
30069;DHT22;16894;49.456;10.644;2024-02-14T15:52:36;9.90;99.90
30069;DHT22;16894;49.456;10.644;2024-02-14T15:55:21;10.00;99.90
30069;DHT22;16894;49.456;10.644;2024-02-14T15:58:05;10.00;99.90
30069;DHT22;16894;49.456;10.644;2024-02-14T16:00:49;9.90;99.90
30069;DHT22;16894;49.456;10.644;2024-02-14T16:03:33;10.00;99.90
30069;DHT22;16894;49.456;10.644;2024-02-14T16:06:18;9.90;99.90
30069;DHT22;16894;49.456;10.644;2024-02-14T16:09:02;9.90;99.90
30069;DHT22;16894;49.456;10.644;2024-02-14T16:11:47;9.90;99.90
30069;DHT22;16894;49.456;10.644;2024-02-14T16:14:31;9.90;99.90
30069;DHT22;16894;49.456;10.644;2024-02-14T16:17:16;9.90;99.90
30069;DHT22;16894;49.456;10.644;2024-02-14T16:20:00;9.90;99.90
30069;DHT22;16894;49.456;10.644;2024-02-14T16:22:44;9.90;99.90
30069;DHT22;16894;49.456;10.644;2024-02-14T16:25:29;9.80;99.90
30069;DHT22;16894;49.456;10.644;2024-02-14T16:28:14;9.80;99.90
30069;DHT22;16894;49.456;10.644;2024-02-14T16:30:59;9.80;99.90
30069;DHT22;16894;49.456;10.644;2024-02-14T16:33:43;9.80;99.90
30069;DHT22;16894;49.456;10.644;2024-02-14T16:36:28;9.80;99.90
30069;DHT22;16894;49.456;10.644;2024-02-14T16:39:12;9.80;99.90
30069;DHT22;16894;49.456;10.644;2024-02-14T16:41:56;9.70;99.90
30069;DHT22;16894;49.456;10.644;2024-02-14T16:44:41;9.80;99.90
30069;DHT22;16894;49.456;10.644;2024-02-14T16:47:26;9.80;99.90
30069;DHT22;16894;49.456;10.644;2024-02-14T16:50:10;9.80;99.90
30069;DHT22;16894;49.456;10.644;2024-02-14T16:52:55;9.80;99.90
30069;DHT22;16894;49.456;10.644;2024-02-14T16:55:39;9.80;99.90
30069;DHT22;16894;49.456;10.644;2024-02-14T16:58:23;9.90;99.90
30069;DHT22;16894;49.456;10.644;2024-02-14T17:01:08;9.80;99.90
30069;DHT22;16894;49.456;10.644;2024-02-14T17:03:54;9.70;99.90
30069;DHT22;16894;49.456;10.644;2024-02-14T17:06:40;9.70;99.90
30069;DHT22;16894;49.456;10.644;2024-02-14T17:09:24;9.70;99.90
30069;DHT22;16894;49.456;10.644;2024-02-14T17:12:08;9.70;99.90
30069;DHT22;16894;49.456;10.644;2024-02-14T17:14:52;9.60;99.90
30069;DHT22;16894;49.456;10.644;2024-02-14T17:17:38;9.60;99.90
30069;DHT22;16894;49.456;10.644;2024-02-14T17:20:22;9.50;1.00
30069;DHT22;16894;49.456;10.644;2024-02-14T17:23:06;9.50;1.00
30069;DHT22;16894;49.456;10.644;2024-02-14T17:25:50;9.40;1.00